sensor_id;sensor_type;location;lat;lon;timestamp;P1;durP1;ratioP1;P2;durP2;ratioP2
76752;SDS011;65687;51.308;16.916;2023-09-08T00:04:09;8.00;;;6.90;;
76752;SDS011;65687;51.308;16.916;2023-09-08T00:09:10;8.80;;;7.00;;
76752;SDS011;65687;51.308;16.916;2023-09-08T00:14:11;9.10;;;6.80;;
76752;SDS011;65687;51.308;16.916;2023-09-08T00:19:12;8.40;;;6.80;;
76752;SDS011;65687;51.308;16.916;2023-09-08T00:24:13;9.10;;;7.50;;
76752;SDS011;65687;51.308;16.916;2023-09-08T00:29:14;9.10;;;7.10;;
76752;SDS011;65687;51.308;16.916;2023-09-08T00:34:15;9.40;;;6.90;;
76752;SDS011;65687;51.308;16.916;2023-09-08T00:39:16;8.50;;;7.00;;
76752;SDS011;65687;51.308;16.916;2023-09-08T00:44:17;10.10;;;7.70;;
76752;SDS011;65687;51.308;16.916;2023-09-08T00:49:18;8.90;;;6.80;;
76752;SDS011;65687;51.308;16.916;2023-09-08T00:54:19;11.10;;;7.40;;
76752;SDS011;65687;51.308;16.916;2023-09-08T00:59:20;8.20;;;7.20;;
76752;SDS011;65687;51.308;16.916;2023-09-08T01:04:21;10.30;;;7.60;;
76752;SDS011;65687;51.308;16.916;2023-09-08T01:09:22;9.30;;;8.30;;
76752;SDS011;65687;51.308;16.916;2023-09-08T01:14:25;10.10;;;8.20;;
76752;SDS011;65687;51.308;16.916;2023-09-08T01:19:27;10.80;;;7.50;;
76752;SDS011;65687;51.308;16.916;2023-09-08T01:29:38;10.20;;;7.40;;
76752;SDS011;65687;51.308;16.916;2023-09-08T01:34:41;9.30;;;7.50;;
76752;SDS011;65687;51.308;16.916;2023-09-08T01:39:42;9.00;;;7.40;;
76752;SDS011;65687;51.308;16.916;2023-09-08T01:44:43;9.50;;;8.00;;
76752;SDS011;65687;51.308;16.916;2023-09-08T01:49:44;9.30;;;7.60;;
76752;SDS011;65687;51.308;16.916;2023-09-08T01:54:45;8.90;;;7.60;;
76752;SDS011;65687;51.308;16.916;2023-09-08T01:59:46;8.20;;;6.70;;
76752;SDS011;65687;51.308;16.916;2023-09-08T02:04:47;10.40;;;8.20;;
76752;SDS011;65687;51.308;16.916;2023-09-08T02:09:48;9.10;;;7.50;;
76752;SDS011;65687;51.308;16.916;2023-09-08T02:14:49;8.90;;;7.30;;
76752;SDS011;65687;51.308;16.916;2023-09-08T02:19:50;9.90;;;7.40;;
76752;SDS011;65687;51.308;16.916;2023-09-08T02:24:51;9.60;;;7.70;;
76752;SDS011;65687;51.308;16.916;2023-09-08T02:29:52;11.00;;;8.00;;
76752;SDS011;65687;51.308;16.916;2023-09-08T02:34:53;10.20;;;7.70;;
76752;SDS011;65687;51.308;16.916;2023-09-08T02:39:54;9.50;;;7.30;;
76752;SDS011;65687;51.308;16.916;2023-09-08T02:44:55;10.10;;;7.00;;
76752;SDS011;65687;51.308;16.916;2023-09-08T02:49:56;10.40;;;8.30;;
76752;SDS011;65687;51.308;16.916;2023-09-08T02:54:57;8.30;;;6.90;;
76752;SDS011;65687;51.308;16.916;2023-09-08T02:59:59;10.00;;;7.50;;
76752;SDS011;65687;51.308;16.916;2023-09-08T03:05:00;9.80;;;7.00;;
76752;SDS011;65687;51.308;16.916;2023-09-08T03:10:02;11.90;;;7.30;;
76752;SDS011;65687;51.308;16.916;2023-09-08T03:20:05;8.50;;;6.90;;
76752;SDS011;65687;51.308;16.916;2023-09-08T03:25:08;10.80;;;7.30;;
76752;SDS011;65687;51.308;16.916;2023-09-08T03:30:09;9.40;;;7.80;;
76752;SDS011;65687;51.308;16.916;2023-09-08T03:35:10;11.00;;;7.50;;
76752;SDS011;65687;51.308;16.916;2023-09-08T03:40:11;11.00;;;7.70;;
76752;SDS011;65687;51.308;16.916;2023-09-08T03:45:12;12.10;;;7.70;;
76752;SDS011;65687;51.308;16.916;2023-09-08T03:50:13;9.70;;;7.10;;
76752;SDS011;65687;51.308;16.916;2023-09-08T03:55:15;11.20;;;8.60;;
76752;SDS011;65687;51.308;16.916;2023-09-08T04:00:16;11.00;;;8.00;;
76752;SDS011;65687;51.308;16.916;2023-09-08T04:05:20;11.20;;;7.10;;
76752;SDS011;65687;51.308;16.916;2023-09-08T04:10:21;10.50;;;7.60;;
76752;SDS011;65687;51.308;16.916;2023-09-08T04:15:22;10.60;;;7.40;;
76752;SDS011;65687;51.308;16.916;2023-09-08T04:20:23;10.70;;;8.50;;
76752;SDS011;65687;51.308;16.916;2023-09-08T04:25:24;10.20;;;7.40;;
76752;SDS011;65687;51.308;16.916;2023-09-08T04:30:25;9.00;;;7.40;;
76752;SDS011;65687;51.308;16.916;2023-09-08T04:35:26;10.40;;;7.60;;
76752;SDS011;65687;51.308;16.916;2023-09-08T04:40:27;11.80;;;7.60;;
76752;SDS011;65687;51.308;16.916;2023-09-08T04:45:29;10.60;;;7.40;;
76752;SDS011;65687;51.308;16.916;2023-09-08T04:50:30;11.20;;;8.10;;
76752;SDS011;65687;51.308;16.916;2023-09-08T04:55:31;10.70;;;7.40;;
76752;SDS011;65687;51.308;16.916;2023-09-08T05:00:32;10.50;;;7.50;;
76752;SDS011;65687;51.308;16.916;2023-09-08T05:05:34;10.90;;;7.30;;
76752;SDS011;65687;51.308;16.916;2023-09-08T05:10:35;11.80;;;8.30;;
76752;SDS011;65687;51.308;16.916;2023-09-08T05:15:36;14.10;;;8.40;;
76752;SDS011;65687;51.308;16.916;2023-09-08T05:20:38;11.50;;;8.60;;
76752;SDS011;65687;51.308;16.916;2023-09-08T05:25:41;10.80;;;8.90;;
76752;SDS011;65687;51.308;16.916;2023-09-08T05:30:42;11.70;;;8.70;;
76752;SDS011;65687;51.308;16.916;2023-09-08T05:35:44;10.60;;;8.70;;
76752;SDS011;65687;51.308;16.916;2023-09-08T05:40:45;12.90;;;8.80;;
76752;SDS011;65687;51.308;16.916;2023-09-08T05:45:46;13.20;;;9.40;;
76752;SDS011;65687;51.308;16.916;2023-09-08T05:50:47;11.80;;;9.30;;
76752;SDS011;65687;51.308;16.916;2023-09-08T05:55:48;10.40;;;8.00;;
76752;SDS011;65687;51.308;16.916;2023-09-08T06:00:49;12.60;;;8.80;;
76752;SDS011;65687;51.308;16.916;2023-09-08T06:05:50;14.80;;;9.80;;
76752;SDS011;65687;51.308;16.916;2023-09-08T06:10:51;15.00;;;10.30;;
76752;SDS011;65687;51.308;16.916;2023-09-08T06:15:52;13.70;;;10.70;;
76752;SDS011;65687;51.308;16.916;2023-09-08T06:20:53;12.30;;;9.60;;
76752;SDS011;65687;51.308;16.916;2023-09-08T06:25:56;14.10;;;10.70;;
76752;SDS011;65687;51.308;16.916;2023-09-08T06:31:00;12.20;;;9.90;;
76752;SDS011;65687;51.308;16.916;2023-09-08T06:36:02;13.70;;;9.90;;
76752;SDS011;65687;51.308;16.916;2023-09-08T06:41:12;13.10;;;11.20;;
76752;SDS011;65687;51.308;16.916;2023-09-08T06:46:13;14.30;;;11.30;;
76752;SDS011;65687;51.308;16.916;2023-09-08T06:51:14;13.50;;;10.60;;
76752;SDS011;65687;51.308;16.916;2023-09-08T06:56:15;17.80;;;10.90;;
76752;SDS011;65687;51.308;16.916;2023-09-08T07:01:16;14.20;;;10.50;;
76752;SDS011;65687;51.308;16.916;2023-09-08T07:06:17;15.60;;;10.40;;
76752;SDS011;65687;51.308;16.916;2023-09-08T07:11:18;15.90;;;10.80;;
76752;SDS011;65687;51.308;16.916;2023-09-08T07:16:19;12.70;;;9.80;;
76752;SDS011;65687;51.308;16.916;2023-09-08T07:21:21;12.60;;;9.60;;
76752;SDS011;65687;51.308;16.916;2023-09-08T07:26:21;15.20;;;10.90;;
76752;SDS011;65687;51.308;16.916;2023-09-08T07:31:22;15.50;;;10.50;;
76752;SDS011;65687;51.308;16.916;2023-09-08T07:36:23;12.00;;;9.80;;
76752;SDS011;65687;51.308;16.916;2023-09-08T07:41:24;17.30;;;10.50;;
76752;SDS011;65687;51.308;16.916;2023-09-08T07:46:25;15.50;;;11.00;;
76752;SDS011;65687;51.308;16.916;2023-09-08T07:51:27;13.80;;;10.30;;
76752;SDS011;65687;51.308;16.916;2023-09-08T07:56:28;12.20;;;8.80;;
76752;SDS011;65687;51.308;16.916;2023-09-08T08:01:29;14.90;;;10.40;;
76752;SDS011;65687;51.308;16.916;2023-09-08T08:06:30;12.30;;;9.40;;
76752;SDS011;65687;51.308;16.916;2023-09-08T08:11:31;11.10;;;9.10;;
76752;SDS011;65687;51.308;16.916;2023-09-08T08:16:32;11.90;;;9.30;;
76752;SDS011;65687;51.308;16.916;2023-09-08T08:21:33;13.50;;;8.60;;
76752;SDS011;65687;51.308;16.916;2023-09-08T08:26:33;13.00;;;9.40;;
76752;SDS011;65687;51.308;16.916;2023-09-08T08:31:34;12.70;;;9.90;;
76752;SDS011;65687;51.308;16.916;2023-09-08T08:36:38;14.20;;;9.30;;
76752;SDS011;65687;51.308;16.916;2023-09-08T08:41:40;10.10;;;8.40;;
76752;SDS011;65687;51.308;16.916;2023-09-08T08:46:42;11.40;;;9.10;;
76752;SDS011;65687;51.308;16.916;2023-09-08T08:51:45;9.10;;;7.20;;
76752;SDS011;65687;51.308;16.916;2023-09-08T08:56:48;11.10;;;8.00;;
76752;SDS011;65687;51.308;16.916;2023-09-08T09:01:50;10.70;;;8.30;;
76752;SDS011;65687;51.308;16.916;2023-09-08T09:06:52;9.80;;;7.50;;
76752;SDS011;65687;51.308;16.916;2023-09-08T09:11:55;11.10;;;8.00;;
76752;SDS011;65687;51.308;16.916;2023-09-08T09:16:56;11.40;;;7.90;;
76752;SDS011;65687;51.308;16.916;2023-09-08T09:21:58;12.70;;;8.50;;
76752;SDS011;65687;51.308;16.916;2023-09-08T09:27:00;9.80;;;7.00;;
76752;SDS011;65687;51.308;16.916;2023-09-08T09:32:02;9.70;;;7.50;;
76752;SDS011;65687;51.308;16.916;2023-09-08T09:37:09;8.10;;;6.60;;
76752;SDS011;65687;51.308;16.916;2023-09-08T09:47:11;10.60;;;7.80;;
76752;SDS011;65687;51.308;16.916;2023-09-08T09:52:20;9.70;;;7.10;;
76752;SDS011;65687;51.308;16.916;2023-09-08T09:57:23;8.60;;;6.90;;
76752;SDS011;65687;51.308;16.916;2023-09-08T10:02:25;10.10;;;7.60;;
76752;SDS011;65687;51.308;16.916;2023-09-08T10:07:27;10.90;;;7.70;;
76752;SDS011;65687;51.308;16.916;2023-09-08T10:17:32;9.70;;;7.60;;
76752;SDS011;65687;51.308;16.916;2023-09-08T10:22:35;11.90;;;8.10;;
76752;SDS011;65687;51.308;16.916;2023-09-08T10:27:38;8.40;;;6.90;;
76752;SDS011;65687;51.308;16.916;2023-09-08T10:32:40;8.30;;;6.70;;
76752;SDS011;65687;51.308;16.916;2023-09-08T10:37:43;9.80;;;8.20;;
76752;SDS011;65687;51.308;16.916;2023-09-08T10:42:44;8.20;;;6.80;;
76752;SDS011;65687;51.308;16.916;2023-09-08T10:53:06;8.00;;;7.20;;
76752;SDS011;65687;51.308;16.916;2023-09-08T11:03:45;8.30;;;7.10;;
76752;SDS011;65687;51.308;16.916;2023-09-08T11:08:49;8.50;;;6.70;;
76752;SDS011;65687;51.308;16.916;2023-09-08T11:13:53;7.70;;;6.20;;
76752;SDS011;65687;51.308;16.916;2023-09-08T11:18:54;8.30;;;6.50;;
76752;SDS011;65687;51.308;16.916;2023-09-08T11:23:55;7.30;;;6.20;;
76752;SDS011;65687;51.308;16.916;2023-09-08T11:28:58;7.70;;;5.80;;
76752;SDS011;65687;51.308;16.916;2023-09-08T11:34:00;9.10;;;6.20;;
76752;SDS011;65687;51.308;16.916;2023-09-08T11:39:03;7.00;;;5.00;;
76752;SDS011;65687;51.308;16.916;2023-09-08T11:44:06;7.10;;;5.10;;
76752;SDS011;65687;51.308;16.916;2023-09-08T11:49:07;8.20;;;5.30;;
76752;SDS011;65687;51.308;16.916;2023-09-08T11:54:08;7.40;;;5.80;;
76752;SDS011;65687;51.308;16.916;2023-09-08T11:59:09;6.60;;;5.30;;
76752;SDS011;65687;51.308;16.916;2023-09-08T12:04:20;7.20;;;6.10;;
76752;SDS011;65687;51.308;16.916;2023-09-08T12:09:21;8.20;;;5.30;;
76752;SDS011;65687;51.308;16.916;2023-09-08T12:19:29;7.70;;;6.00;;
76752;SDS011;65687;51.308;16.916;2023-09-08T12:30:15;6.90;;;5.00;;
76752;SDS011;65687;51.308;16.916;2023-09-08T12:35:20;7.20;;;5.40;;
76752;SDS011;65687;51.308;16.916;2023-09-08T12:40:23;8.40;;;5.80;;
76752;SDS011;65687;51.308;16.916;2023-09-08T12:45:26;6.30;;;5.10;;
76752;SDS011;65687;51.308;16.916;2023-09-08T12:50:28;6.10;;;4.50;;
76752;SDS011;65687;51.308;16.916;2023-09-08T12:55:29;6.30;;;4.90;;
76752;SDS011;65687;51.308;16.916;2023-09-08T13:00:30;5.40;;;4.40;;
76752;SDS011;65687;51.308;16.916;2023-09-08T13:05:31;6.10;;;5.20;;
76752;SDS011;65687;51.308;16.916;2023-09-08T13:10:33;6.60;;;4.70;;
76752;SDS011;65687;51.308;16.916;2023-09-08T13:15:34;6.10;;;4.90;;
76752;SDS011;65687;51.308;16.916;2023-09-08T13:20:35;7.00;;;5.50;;
76752;SDS011;65687;51.308;16.916;2023-09-08T13:25:36;6.30;;;4.50;;
76752;SDS011;65687;51.308;16.916;2023-09-08T13:30:37;5.90;;;4.50;;
76752;SDS011;65687;51.308;16.916;2023-09-08T13:35:38;6.80;;;4.90;;
76752;SDS011;65687;51.308;16.916;2023-09-08T13:40:39;6.40;;;5.10;;
76752;SDS011;65687;51.308;16.916;2023-09-08T13:45:42;5.60;;;4.40;;
76752;SDS011;65687;51.308;16.916;2023-09-08T13:50:43;6.20;;;4.30;;
76752;SDS011;65687;51.308;16.916;2023-09-08T13:55:44;6.20;;;4.70;;
76752;SDS011;65687;51.308;16.916;2023-09-08T14:00:45;5.30;;;4.50;;
76752;SDS011;65687;51.308;16.916;2023-09-08T14:05:49;6.10;;;4.60;;
76752;SDS011;65687;51.308;16.916;2023-09-08T14:10:50;5.80;;;4.50;;
76752;SDS011;65687;51.308;16.916;2023-09-08T14:15:51;5.30;;;4.60;;
76752;SDS011;65687;51.308;16.916;2023-09-08T14:20:54;5.60;;;3.90;;
76752;SDS011;65687;51.308;16.916;2023-09-08T14:30:56;5.30;;;4.10;;
76752;SDS011;65687;51.308;16.916;2023-09-08T14:35:57;5.40;;;4.40;;
76752;SDS011;65687;51.308;16.916;2023-09-08T14:41:00;6.80;;;4.40;;
76752;SDS011;65687;51.308;16.916;2023-09-08T14:46:04;5.40;;;3.90;;
76752;SDS011;65687;51.308;16.916;2023-09-08T14:51:06;4.90;;;4.20;;
76752;SDS011;65687;51.308;16.916;2023-09-08T14:56:07;4.90;;;4.40;;
76752;SDS011;65687;51.308;16.916;2023-09-08T15:01:08;4.60;;;3.70;;
76752;SDS011;65687;51.308;16.916;2023-09-08T15:06:09;7.80;;;4.50;;
76752;SDS011;65687;51.308;16.916;2023-09-08T15:11:10;5.70;;;4.30;;
76752;SDS011;65687;51.308;16.916;2023-09-08T15:16:12;5.60;;;3.80;;
76752;SDS011;65687;51.308;16.916;2023-09-08T15:21:15;4.40;;;3.50;;
76752;SDS011;65687;51.308;16.916;2023-09-08T15:26:16;5.60;;;3.90;;
76752;SDS011;65687;51.308;16.916;2023-09-08T15:36:19;5.10;;;4.10;;
76752;SDS011;65687;51.308;16.916;2023-09-08T15:41:20;5.30;;;4.30;;
76752;SDS011;65687;51.308;16.916;2023-09-08T15:46:21;10.30;;;5.10;;
76752;SDS011;65687;51.308;16.916;2023-09-08T15:51:22;5.60;;;4.00;;
76752;SDS011;65687;51.308;16.916;2023-09-08T15:56:23;6.30;;;5.00;;
76752;SDS011;65687;51.308;16.916;2023-09-08T16:01:24;7.60;;;5.20;;
76752;SDS011;65687;51.308;16.916;2023-09-08T16:06:25;6.50;;;5.00;;
76752;SDS011;65687;51.308;16.916;2023-09-08T16:11:26;6.40;;;4.70;;
76752;SDS011;65687;51.308;16.916;2023-09-08T16:16:27;5.20;;;4.50;;
76752;SDS011;65687;51.308;16.916;2023-09-08T16:21:28;8.40;;;4.60;;
76752;SDS011;65687;51.308;16.916;2023-09-08T16:26:29;6.70;;;4.70;;
76752;SDS011;65687;51.308;16.916;2023-09-08T16:31:31;6.20;;;4.50;;
76752;SDS011;65687;51.308;16.916;2023-09-08T16:36:32;5.60;;;4.20;;
76752;SDS011;65687;51.308;16.916;2023-09-08T16:41:32;6.80;;;4.50;;
76752;SDS011;65687;51.308;16.916;2023-09-08T16:46:34;6.80;;;4.90;;
76752;SDS011;65687;51.308;16.916;2023-09-08T16:51:35;6.40;;;4.70;;
76752;SDS011;65687;51.308;16.916;2023-09-08T16:56:36;5.60;;;4.40;;
76752;SDS011;65687;51.308;16.916;2023-09-08T17:01:37;5.70;;;4.50;;
76752;SDS011;65687;51.308;16.916;2023-09-08T17:06:38;5.80;;;4.40;;
76752;SDS011;65687;51.308;16.916;2023-09-08T17:11:39;5.70;;;4.20;;
76752;SDS011;65687;51.308;16.916;2023-09-08T17:16:41;5.10;;;4.10;;
76752;SDS011;65687;51.308;16.916;2023-09-08T17:21:42;6.90;;;4.40;;
76752;SDS011;65687;51.308;16.916;2023-09-08T17:26:43;6.60;;;4.20;;
76752;SDS011;65687;51.308;16.916;2023-09-08T17:31:44;6.20;;;4.50;;
76752;SDS011;65687;51.308;16.916;2023-09-08T17:36:46;7.00;;;5.50;;
76752;SDS011;65687;51.308;16.916;2023-09-08T17:42:03;6.70;;;5.40;;
76752;SDS011;65687;51.308;16.916;2023-09-08T17:47:04;6.20;;;4.90;;
76752;SDS011;65687;51.308;16.916;2023-09-08T17:52:06;6.70;;;5.10;;
76752;SDS011;65687;51.308;16.916;2023-09-08T17:57:07;7.20;;;5.10;;
76752;SDS011;65687;51.308;16.916;2023-09-08T18:02:08;6.10;;;5.20;;
76752;SDS011;65687;51.308;16.916;2023-09-08T18:07:09;6.50;;;4.40;;
76752;SDS011;65687;51.308;16.916;2023-09-08T18:12:10;5.40;;;4.00;;
76752;SDS011;65687;51.308;16.916;2023-09-08T18:17:11;6.30;;;4.70;;
76752;SDS011;65687;51.308;16.916;2023-09-08T18:22:12;5.90;;;4.30;;
76752;SDS011;65687;51.308;16.916;2023-09-08T18:27:13;5.40;;;4.80;;
76752;SDS011;65687;51.308;16.916;2023-09-08T18:32:14;6.50;;;4.60;;
76752;SDS011;65687;51.308;16.916;2023-09-08T18:37:15;6.80;;;4.20;;
76752;SDS011;65687;51.308;16.916;2023-09-08T18:42:16;7.30;;;4.30;;
76752;SDS011;65687;51.308;16.916;2023-09-08T18:47:17;5.70;;;4.00;;
76752;SDS011;65687;51.308;16.916;2023-09-08T18:52:19;5.30;;;4.30;;
76752;SDS011;65687;51.308;16.916;2023-09-08T18:57:20;8.00;;;4.20;;
76752;SDS011;65687;51.308;16.916;2023-09-08T19:02:21;5.30;;;4.00;;
76752;SDS011;65687;51.308;16.916;2023-09-08T19:07:22;6.30;;;4.50;;
76752;SDS011;65687;51.308;16.916;2023-09-08T19:12:23;5.80;;;4.40;;
76752;SDS011;65687;51.308;16.916;2023-09-08T19:17:24;6.40;;;4.20;;
76752;SDS011;65687;51.308;16.916;2023-09-08T19:22:24;7.20;;;4.90;;
76752;SDS011;65687;51.308;16.916;2023-09-08T19:27:28;7.20;;;4.80;;
76752;SDS011;65687;51.308;16.916;2023-09-08T19:32:30;6.40;;;4.40;;
76752;SDS011;65687;51.308;16.916;2023-09-08T19:37:31;7.10;;;4.80;;
76752;SDS011;65687;51.308;16.916;2023-09-08T19:42:32;6.00;;;4.70;;
76752;SDS011;65687;51.308;16.916;2023-09-08T19:47:33;5.00;;;4.20;;
76752;SDS011;65687;51.308;16.916;2023-09-08T19:52:34;7.00;;;4.80;;
76752;SDS011;65687;51.308;16.916;2023-09-08T19:57:35;6.30;;;4.50;;
76752;SDS011;65687;51.308;16.916;2023-09-08T20:02:36;6.60;;;4.50;;
76752;SDS011;65687;51.308;16.916;2023-09-08T20:07:37;5.60;;;4.70;;
76752;SDS011;65687;51.308;16.916;2023-09-08T20:12:39;7.10;;;4.80;;
76752;SDS011;65687;51.308;16.916;2023-09-08T20:17:42;6.40;;;4.30;;
76752;SDS011;65687;51.308;16.916;2023-09-08T20:22:43;6.10;;;4.60;;
76752;SDS011;65687;51.308;16.916;2023-09-08T20:27:44;5.80;;;4.50;;
76752;SDS011;65687;51.308;16.916;2023-09-08T20:32:45;6.10;;;4.70;;
76752;SDS011;65687;51.308;16.916;2023-09-08T20:37:46;6.00;;;4.00;;
76752;SDS011;65687;51.308;16.916;2023-09-08T20:42:47;6.40;;;4.60;;
76752;SDS011;65687;51.308;16.916;2023-09-08T20:47:48;7.90;;;5.00;;
76752;SDS011;65687;51.308;16.916;2023-09-08T20:52:49;6.70;;;4.40;;
76752;SDS011;65687;51.308;16.916;2023-09-08T20:57:50;5.10;;;4.60;;
76752;SDS011;65687;51.308;16.916;2023-09-08T21:02:53;6.40;;;4.50;;
76752;SDS011;65687;51.308;16.916;2023-09-08T21:07:54;6.70;;;4.50;;
76752;SDS011;65687;51.308;16.916;2023-09-08T21:12:55;6.80;;;4.40;;
76752;SDS011;65687;51.308;16.916;2023-09-08T21:17:56;6.70;;;5.10;;
76752;SDS011;65687;51.308;16.916;2023-09-08T21:22:57;5.80;;;4.90;;
76752;SDS011;65687;51.308;16.916;2023-09-08T21:28:01;6.30;;;4.20;;
76752;SDS011;65687;51.308;16.916;2023-09-08T21:33:04;4.70;;;4.20;;
76752;SDS011;65687;51.308;16.916;2023-09-08T21:38:05;6.80;;;5.00;;
76752;SDS011;65687;51.308;16.916;2023-09-08T21:43:06;6.80;;;4.70;;
76752;SDS011;65687;51.308;16.916;2023-09-08T21:48:07;6.40;;;5.40;;
76752;SDS011;65687;51.308;16.916;2023-09-08T21:53:08;6.80;;;5.10;;
76752;SDS011;65687;51.308;16.916;2023-09-08T21:58:09;7.30;;;4.80;;
76752;SDS011;65687;51.308;16.916;2023-09-08T22:03:10;8.70;;;5.40;;
76752;SDS011;65687;51.308;16.916;2023-09-08T22:08:11;6.50;;;5.10;;
76752;SDS011;65687;51.308;16.916;2023-09-08T22:13:11;8.00;;;5.70;;
76752;SDS011;65687;51.308;16.916;2023-09-08T22:18:12;8.00;;;5.70;;
76752;SDS011;65687;51.308;16.916;2023-09-08T22:23:13;6.90;;;4.80;;
76752;SDS011;65687;51.308;16.916;2023-09-08T22:28:14;8.00;;;5.60;;
76752;SDS011;65687;51.308;16.916;2023-09-08T22:33:15;8.70;;;6.20;;
76752;SDS011;65687;51.308;16.916;2023-09-08T22:38:16;8.00;;;6.00;;
76752;SDS011;65687;51.308;16.916;2023-09-08T22:43:17;7.40;;;5.50;;
76752;SDS011;65687;51.308;16.916;2023-09-08T22:48:18;7.10;;;5.30;;
76752;SDS011;65687;51.308;16.916;2023-09-08T22:53:20;8.20;;;5.50;;
76752;SDS011;65687;51.308;16.916;2023-09-08T22:58:21;8.20;;;6.10;;
76752;SDS011;65687;51.308;16.916;2023-09-08T23:03:22;7.50;;;6.00;;
76752;SDS011;65687;51.308;16.916;2023-09-08T23:08:23;6.80;;;5.90;;
76752;SDS011;65687;51.308;16.916;2023-09-08T23:13:23;7.40;;;5.80;;
76752;SDS011;65687;51.308;16.916;2023-09-08T23:18:24;8.40;;;6.00;;
76752;SDS011;65687;51.308;16.916;2023-09-08T23:23:25;7.40;;;5.50;;
76752;SDS011;65687;51.308;16.916;2023-09-08T23:28:26;8.50;;;6.40;;
76752;SDS011;65687;51.308;16.916;2023-09-08T23:33:27;7.10;;;6.30;;
76752;SDS011;65687;51.308;16.916;2023-09-08T23:38:28;9.50;;;6.10;;
76752;SDS011;65687;51.308;16.916;2023-09-08T23:43:30;9.40;;;6.20;;
76752;SDS011;65687;51.308;16.916;2023-09-08T23:48:31;8.10;;;6.70;;
76752;SDS011;65687;51.308;16.916;2023-09-08T23:53:32;7.40;;;6.30;;
76752;SDS011;65687;51.308;16.916;2023-09-08T23:58:34;9.50;;;6.50;;
